PDT,Max TemperatureF,Mean TemperatureF,Min TemperatureF,Max Dew PointF,MeanDew PointF,Min DewpointF,Max Humidity, Mean Humidity, Min Humidity, Max Sea Level PressureIn, Mean Sea Level PressureIn, Min Sea Level PressureIn, Max VisibilityMiles, Mean VisibilityMiles, Min VisibilityMiles, Max Wind SpeedMPH, Mean Wind SpeedMPH, Max Gust SpeedMPH,PrecipitationIn, CloudCover, Events, WindDirDegrees
2013-7-1,115,103,91,64,57,48,38,25,11,29.76,29.70,29.62,10,10,10,23,12,28,0.00,0,,188
2013-7-2,111,100,88,67,58,52,49,26,15,29.89,29.75,29.66,10,10,7,20,12,26,0.00,1,,194
2013-7-3,116,102,90,61,52,43,38,21,9,29.73,29.64,29.55,10,10,10,20,11,26,0.00,0,,181
2013-7-4,109,98,87,66,61,56,42,31,18,29.70,29.62,29.53,10,9,6,24,16,32,0.00,0,,175
2013-7-5,104,94,87,63,58,50,43,31,21,29.72,29.65,29.60,10,10,10,21,13,30,0.00,0,,179
2013-7-6,109,95,82,56,50,46,35,22,13,29.70,29.63,29.55,10,10,10,13,6,,0.00,0,,179
2013-7-7,114,100,87,57,50,43,33,20,10,29.68,29.62,29.55,10,10,10,14,7,,0.00,1,,191
2013-7-8,115,102,89,68,46,36,45,16,9,29.78,29.71,29.65,10,10,8,14,6,21,0.00,1,,195
2013-7-9,107,96,86,71,67,57,59,42,20,29.96,29.84,29.76,10,10,7,23,16,33,0.00,0,,174
2013-7-10,102,93,84,71,67,62,65,47,28,29.91,29.83,29.73,10,9,3,25,15,33,0.00,0,,177
2013-7-11,95,84,75,75,70,65,91,63,44,29.93,29.83,29.75,10,10,3,22,11,26,0.21,2,Rain-Thunderstorm,139
2013-7-12,104,92,79,74,65,56,82,46,23,29.83,29.76,29.68,10,10,8,13,4,16,0.00,0,,179
2013-7-13,108,94,82,65,59,50,56,31,15,29.83,29.76,29.68,10,10,10,13,7,,0.00,0,,175
2013-7-14,111,98,88,64,61,57,43,29,20,29.80,29.72,29.64,10,10,10,13,9,18,0.00,0,,180
2013-7-15,113,100,90,64,58,50,42,26,14,29.72,29.65,29.56,10,10,10,18,9,24,0.00,1,,185
2013-7-16,109,97,86,56,45,33,30,18,10,29.81,29.73,29.65,10,10,7,20,8,26,0.00,0,,190
2013-7-17,109,96,84,59,46,35,26,18,14,29.91,29.83,29.75,10,10,10,10,6,,0.00,1,,173
2013-7-18,111,98,84,62,51,33,31,20,10,29.83,29.75,29.65,10,10,10,15,5,,0.00,1,,69
2013-7-19,102,95,88,73,68,61,57,44,29,29.84,29.75,29.68,10,10,10,20,15,28,0.00,0,,185
2013-7-20,99,88,78,75,70,66,88,59,35,29.83,29.76,29.65,10,10,7,21,10,28,0.09,2,Rain-Thunderstorm,180
2013-7-21,89,82,75,77,72,66,94,75,51,29.92,29.82,29.72,10,9,2,16,8,,0.24,2,Rain-Thunderstorm,174
2013-7-22,100,88,79,76,69,61,88,55,29,29.91,29.84,29.77,10,10,10,12,5,,0.00,0,,193
2013-7-23,102,92,82,72,66,62,67,43,27,29.89,29.81,29.73,10,10,10,13,7,,0.00,0,,160
2013-7-24,108,96,84,65,62,60,49,33,21,29.81,29.74,29.64,10,10,10,21,9,18,0.00,0,,172
2013-7-25,100,94,88,67,62,56,43,35,25,29.87,29.81,29.73,10,10,10,22,12,29,0.00,0,,176
2013-7-26,104,96,88,69,64,58,46,36,28,29.96,29.89,29.81,10,10,10,21,6,17,0.00,1,Thunderstorm,114
2013-7-27,109,98,87,67,60,51,45,30,17,29.87,29.77,29.65,10,10,10,15,7,22,0.00,1,,177
2013-7-28,109,96,84,64,57,47,49,28,15,29.73,29.67,29.60,10,10,10,21,10,23,0.00,0,,185
2013-7-29,108,91,75,61,53,43,42,26,17,29.86,29.78,29.69,10,10,10,17,8,22,0.00,0,,165
2013-7-30,108,94,81,58,56,54,42,27,19,29.96,29.89,29.83,10,10,10,16,8,23,0.00,0,,183
2013-7-31,111,95,81,59,54,33,47,27,11,29.93,29.84,29.75,10,10,10,16,6,22,0.00,0,,174